• Join FlightAware (Why Join?)
  • Login
  • US Flag 
02:17PM EDT


 

Airport Tracker/Info


-or-


 

Live Flight TrackerFlight Track Log ✈ AWE997 ✈ 31-Jul-2013 ✈ KORD - KPHL

Flight Track Log - Related Links

Times and Time Zones

All times are in EDT time to prevent confusion due to time zone crossing. See the AWE997 flight status page for this flight to view local times or setup timezone preferences in your user account.

Time Position Orientation Groundspeed Altitude Reporting Facility
EDT Latitude Longitude Course Direction KTS MPH feet Rate Location/Type
11:00AM 41.9167 -87.8833 85° East 188 216 2,600  Level Chicago TRACON
11:02AM 41.9500 -87.3895 90° East  Level FlightAware Approximate
11:02AM 41.8247 -87.7700 137° Southeast 240 276 5,300  Level Chicago Center
11:03AM 41.9387 -87.2195 96° East  Level FlightAware Approximate
11:03AM 41.8219 -87.6633 92° East 286 329 7,900  Level Chicago Center
11:04AM 41.9333 -87.0490 90° East  Level FlightAware Approximate
11:04AM 41.8394 -87.5567 78° East 298 343 10,000  Level Chicago Center
11:05AM 41.9333 -86.8783 90° East  Level FlightAware Approximate
11:05AM 41.8664 -87.4297 74° East 303 349 12,500  Level Chicago Center
11:06AM 41.9378 -86.7245 85° East  Level FlightAware Approximate
11:06AM 41.8894 -87.3206 74° East 320 368 13,600  Level Chicago Center
11:07AM 41.9183 -87.1897 73° East 360 414 14,400 1,020 Climbing Chicago Center
11:08AM 41.9461 -87.0458 75° East 396 456 15,800 780 Climbing Chicago Center
11:09AM 41.9469 -86.8908 90° East 414 476 16,100 900 Climbing Chicago Center
11:10AM 41.9503 -86.7033 89° East 419 482 17,700 1,440 Climbing Chicago Center
11:11AM 41.9522 -86.5433 89° East 426 490 19,100 1,200 Climbing Chicago Center
11:12AM 41.9539 -86.3786 89° East 440 506 20,300 1,200 Climbing Chicago Center
11:13AM 41.9553 -86.2125 89° East 445 512 21,700 1,260 Climbing Chicago Center
11:14AM 41.9392 -86.0436 97° East 455 524 23,000 1,140 Climbing Chicago Center
11:15AM 41.9244 -85.8731 97° East 458 527 24,100 1,080 Climbing Chicago Center
11:16AM 41.9039 -85.6644 97° East 467 537 25,300 1,080 Climbing Chicago Center
11:17AM 41.8883 -85.4858 97° East 475 547 26,400 960 Climbing Chicago Center
11:19AM 41.8708 -85.3058 97° East 479 551 27,400 780 Climbing Chicago Center
11:20AM 41.8517 -85.1244 98° East 485 558 28,100 720 Climbing Chicago Center
11:21AM 41.8328 -84.9400 98° East 494 568 29,000 900 Climbing Chicago Center
11:22AM 41.8139 -84.7589 98° East 491 565 30,000 900 Climbing Chicago Center
11:23AM 41.7947 -84.5767 98° East 494 568 30,900 480 Climbing Chicago Center
11:24AM 41.7772 -84.3953 97° East 492 566 31,000  Climbing Chicago Center
11:25AM 41.7778 -84.1789 90° East 485 558 31,000 360 Level Chicago Center
11:26AM 41.7739 -83.9858 91° East 480 552 31,800 840 Climbing Cleveland Center
11:27AM 41.7583 -83.8067 97° East 480 552 32,800 1,020 Climbing Cleveland Center
11:28AM 41.7172 -83.6322 107° East 485 558 33,900 1,020 Climbing Cleveland Center
11:29AM 41.6736 -83.4633 109° East 485 558 34,900 540 Climbing Cleveland Center
11:30AM 41.6339 -83.2919 107° East 485 558 35,000  Climbing Cleveland Center
11:31AM 41.5978 -83.1378 107° East 485 558 35,000  Level Cleveland Center
11:32AM 41.5558 -82.9639 108° East 491 565 35,000  Level Cleveland Center
11:33AM 41.5111 -82.7958 110° East 486 559 35,000  Level Cleveland Center
11:34AM 41.4625 -82.6058 109° East 486 559 35,000  Level Cleveland Center
11:35AM 41.4197 -82.4328 108° East 486 559 35,000  Level Cleveland Center
11:36AM 41.3764 -82.2628 109° East 486 559 35,100  Climbing Cleveland Center
11:37AM 41.3392 -82.1042 107° East 486 559 35,000 -60 Descending Cleveland Center
11:38AM 41.2953 -81.9344 109° East 486 559 35,000  Level Cleveland Center
11:39AM 41.2492 -81.7678 110° East 481 554 35,000  Level Cleveland Center
11:40AM 41.2050 -81.6042 110° East 481 554 35,000  Level Cleveland Center
11:41AM 41.1625 -81.4381 109° East 481 554 35,000  Level Cleveland Center
11:42AM 41.1094 -81.2556 111° Southeast 481 554 35,000  Level Cleveland Center
11:43AM 41.0644 -81.0869 109° East 481 554 35,100  Climbing Cleveland Center
11:44AM 41.0275 -80.9381 108° East 476 548 35,100 -60 Level Cleveland Center
11:45AM 40.9864 -80.7756 108° East 471 542 35,000 -60 Descending Cleveland Center
11:46AM 40.9594 -80.6022 102° East 461 531 35,000  Level Cleveland Center
11:47AM 40.9072 -80.4458 114° Southeast 461 531 35,000  Level Cleveland Center
11:48AM 40.8506 -80.2894 116° Southeast 467 537 35,000  Level Cleveland Center
11:49AM 40.7958 -80.1333 115° Southeast 467 537 35,000  Level Cleveland Center
11:50AM 40.7389 -79.9719 115° Southeast 467 537 35,000  Level Cleveland Center
11:51AM 40.6836 -79.8192 115° Southeast 467 537 35,000  Level Cleveland Center
11:52AM 40.6264 -79.6667 116° Southeast 461 531 35,000  Level Cleveland Center
11:53AM 40.5708 -79.5089 115° Southeast 461 531 35,000  Level Cleveland Center
11:54AM 40.5131 -79.3569 117° Southeast 461 531 35,000  Level Cleveland Center
11:55AM 40.4756 -79.1939 107° East 461 531 35,000  Level Cleveland Center
11:56AM 40.4547 -79.0250 99° East 461 531 35,000  Level Cleveland Center
11:57AM 40.4333 -78.8536 99° East 468 539 35,000 -180 Level Cleveland Center
11:58AM 40.4075 -78.6661 100° East 474 545 34,700 -1,320 Descending Cleveland Center
11:59AM 40.3836 -78.4953 100° East 469 540 32,400 -2,460 Descending Cleveland Center
12:01PM 40.3333 -78.1122 100° East 478 550 26,800 -2,280 Descending New York Center
12:02PM 40.3100 -77.9492 101° East 471 542 25,000 -960 Descending New York Center
12:03PM 40.3092 -77.7911 90° East 454 522 25,000 -360 Level New York Center
12:04PM 40.3100 -77.6361 90° East 440 506 24,300 -840 Descending New York Center
12:05PM 40.3103 -77.4836 90° East 427 491 23,300 -1,020 Descending New York Center
12:06PM 40.3078 -77.3444 91° East 422 486 22,300 -1,080 Descending New York Center
12:07PM 40.3000 -77.1831 94° East 417 480 21,200 -1,080 Descending New York Center
12:08PM 40.2931 -77.0383 94° East 412 474 20,200 -960 Descending New York Center
12:09PM 40.2608 -76.8964 107° East 399 459 19,300 -1,020 Descending New York Center
12:10PM 40.2303 -76.7606 106° East 392 451 18,300 -900 Descending New York Center
12:11PM 40.2081 -76.6228 102° East 387 445 17,600 -900 Descending New York Center
12:12PM 40.1875 -76.4878 101° East 381 438 16,600 -1,200 Descending New York Center
12:13PM 40.1706 -76.3642 100° East 375 432 15,300 -1,680 Descending New York Center
12:14PM 40.1503 -76.2186 100° East 375 432 13,300 -1,860 Descending New York Center
12:15PM 40.1314 -76.0867 101° East 375 432 11,600 -1,500 Descending New York Center
12:16PM 40.1119 -75.9603 101° East 368 423 10,400 -1,020 Descending New York Center
12:17PM 40.0958 -75.8506 101° East 336 387 9,600 -1,200 Descending New York Center
12:18PM 40.0814 -75.7464 100° East 298 343 8,000 -900 Descending New York Center
12:19PM 40.0756 -75.6431 94° East 298 343 7,800 -540 Descending New York Center
12:20PM 40.0694 -75.5339 94° East 293 337 7,000 -420 Descending New York Center
12:21PM 40.0653 -75.4278 93° East 293 337 7,000  Level New York Center
12:22PM 40.0667 -75.3667 88° East 292 336 7,000  Level Philadelphia TRACON
12:23PM 40.0667 -75.2667 90° East 280 322 7,000 -300 Level Philadelphia TRACON
12:24PM 40.0500 -75.1667 102° East 221 254 6,500 -540 Descending Philadelphia TRACON
12:25PM 40.0167 -75.1000 123° Southeast 224 258 6,000 -720 Descending Philadelphia TRACON
12:26PM 40.0167 -75.0333 90° East 187 215 5,100 -540 Descending Philadelphia TRACON
12:27PM 40.0000 -74.9667 108° East 193 222 5,000 -240 Descending Philadelphia TRACON
12:28PM 39.9667 -74.9167 131° Southeast 191 220 4,700 -600 Descending Philadelphia TRACON
12:29PM 39.9333 -74.9500 217° Southwest 178 205 3,900 -720 Descending Philadelphia TRACON
12:30PM 39.9167 -75.0167 252° West 182 209 3,300 -780 Descending Philadelphia TRACON
12:31PM 39.9000 -75.0667 247° West 177 204 2,400 -900 Descending Philadelphia TRACON
12:32PM 39.9000 -75.1333 270° West 174 200 1,500 -900 Descending Philadelphia TRACON
12:33PM 39.8833 -75.1833 247° West 147 169 700 -840 Descending Philadelphia TRACON